createdAt,value
2023-09-08T00:01:35.401Z,3.65
2023-09-08T00:04:03.845Z,3.88
2023-09-08T00:06:32.319Z,4.03
2023-09-08T00:09:00.483Z,3.50
2023-09-08T00:11:28.676Z,3.72
2023-09-08T00:13:56.867Z,4.20
2023-09-08T00:16:25.223Z,4.07
2023-09-08T00:18:54.172Z,4.43
2023-09-08T00:21:22.351Z,3.33
2023-09-08T00:23:50.534Z,3.97
2023-09-08T00:26:18.760Z,4.40
2023-09-08T00:28:47.431Z,4.15
2023-09-08T00:31:15.836Z,4.15
2023-09-08T00:33:45.557Z,4.55
2023-09-08T00:36:13.836Z,4.22
2023-09-08T00:38:42.654Z,3.97
2023-09-08T00:41:10.998Z,4.22
2023-09-08T00:43:39.271Z,3.72
2023-09-08T00:46:08.934Z,4.38
2023-09-08T00:48:38.940Z,4.72
2023-09-08T00:51:08.935Z,4.35
2023-09-08T00:53:37.463Z,3.95
2023-09-08T00:56:06.634Z,4.55
2023-09-08T00:58:36.020Z,4.35
2023-09-08T01:01:07.199Z,4.07
2023-09-08T01:03:35.534Z,4.10
2023-09-08T01:06:04.328Z,4.00
2023-09-08T01:08:33.277Z,4.22
2023-09-08T01:11:02.096Z,4.07
2023-09-08T01:13:30.742Z,4.35
2023-09-08T01:15:59.105Z,4.35
2023-09-08T01:18:28.720Z,4.03
2023-09-08T01:21:08.452Z,3.95
2023-09-08T01:23:58.846Z,4.55
2023-09-08T01:26:32.963Z,3.47
2023-09-08T01:29:01.961Z,3.92
2023-09-08T01:31:30.366Z,4.60
2023-09-08T01:34:07.911Z,4.22
2023-09-08T01:36:37.123Z,3.80
2023-09-08T01:39:05.426Z,4.50
2023-09-08T01:41:33.828Z,3.72
2023-09-08T01:44:06.482Z,4.80
2023-09-08T01:46:36.512Z,3.95
2023-09-08T01:49:04.846Z,4.43
2023-09-08T01:51:33.140Z,3.92
2023-09-08T01:54:02.890Z,4.78
2023-09-08T01:56:31.114Z,4.68
2023-09-08T01:59:00.519Z,4.55
2023-09-08T02:01:29.385Z,4.35
2023-09-08T02:03:57.630Z,4.30
2023-09-08T02:06:25.859Z,4.47
2023-09-08T02:08:54.735Z,4.28
2023-09-08T02:11:23.051Z,4.95
2023-09-08T02:13:51.258Z,4.57
2023-09-08T02:16:19.633Z,4.22
2023-09-08T02:21:15.980Z,3.90
2023-09-08T02:23:44.825Z,5.28
2023-09-08T02:26:13.089Z,4.15
2023-09-08T02:28:41.293Z,4.00
2023-09-08T02:31:09.586Z,4.28
2023-09-08T02:33:37.837Z,4.57
2023-09-08T02:36:07.388Z,5.25
2023-09-08T02:38:37.504Z,5.28
2023-09-08T02:41:06.393Z,4.18
2023-09-08T02:43:34.591Z,5.20
2023-09-08T02:46:02.941Z,4.43
2023-09-08T02:48:32.633Z,4.25
2023-09-08T02:51:00.937Z,5.22
2023-09-08T02:53:30.009Z,5.68
2023-09-08T02:55:59.134Z,4.72
2023-09-08T02:58:28.911Z,4.75
2023-09-08T03:00:58.022Z,4.60
2023-09-08T03:03:26.292Z,4.80
2023-09-08T03:06:01.626Z,5.43
2023-09-08T03:08:30.395Z,4.70
2023-09-08T03:11:00.627Z,4.63
2023-09-08T03:13:30.316Z,4.80
2023-09-08T03:15:58.609Z,5.00
2023-09-08T03:18:26.845Z,5.15
2023-09-08T03:20:55.098Z,4.40
2023-09-08T03:23:24.053Z,4.90
2023-09-08T03:25:52.348Z,4.07
2023-09-08T03:28:20.516Z,4.18
2023-09-08T03:30:48.778Z,4.95
2023-09-08T03:33:17.402Z,4.63
2023-09-08T03:35:45.827Z,4.20
2023-09-08T03:38:14.138Z,4.88
2023-09-08T03:40:43.856Z,4.93
2023-09-08T03:43:12.301Z,5.35
2023-09-08T03:45:40.588Z,4.07
2023-09-08T03:48:08.954Z,5.07
2023-09-08T03:50:37.427Z,5.03
2023-09-08T03:53:05.996Z,5.32
2023-09-08T03:55:34.610Z,5.57
2023-09-08T03:58:02.817Z,5.47
2023-09-08T04:00:31.224Z,5.22
2023-09-08T04:02:59.525Z,5.18
2023-09-08T04:05:27.885Z,5.38
2023-09-08T04:07:56.235Z,5.13
2023-09-08T04:10:24.434Z,5.82
2023-09-08T04:12:52.996Z,5.88
2023-09-08T04:15:21.901Z,5.38
2023-09-08T04:17:50.279Z,5.63
2023-09-08T04:20:19.761Z,5.85
2023-09-08T04:22:48.937Z,5.90
2023-09-08T04:25:17.209Z,6.15
2023-09-08T04:27:45.900Z,5.85
2023-09-08T04:30:14.931Z,5.65
2023-09-08T04:32:43.964Z,5.93
2023-09-08T04:35:12.815Z,6.75
2023-09-08T04:37:41.384Z,6.07
2023-09-08T04:40:09.935Z,5.82
2023-09-08T04:42:38.938Z,6.13
2023-09-08T04:45:08.948Z,6.03
2023-09-08T04:47:38.882Z,5.78
2023-09-08T04:50:07.828Z,5.80
2023-09-08T04:52:36.436Z,5.32
2023-09-08T04:55:06.010Z,5.35
2023-09-08T04:57:34.636Z,6.95
2023-09-08T05:00:04.316Z,5.53
2023-09-08T05:02:32.706Z,5.90
2023-09-08T05:05:01.440Z,5.47
2023-09-08T05:07:29.999Z,6.53
2023-09-08T05:09:58.575Z,6.03
2023-09-08T05:12:30.613Z,5.20
2023-09-08T05:15:07.094Z,5.78
2023-09-08T05:17:37.502Z,5.05
2023-09-08T05:20:06.289Z,6.22
2023-09-08T05:22:34.764Z,5.93
2023-09-08T05:25:03.182Z,5.30
2023-09-08T05:27:33.000Z,4.78
2023-09-08T05:30:01.394Z,5.40
2023-09-08T05:34:58.061Z,5.40
2023-09-08T05:37:26.244Z,6.03
2023-09-08T05:39:54.646Z,5.68
2023-09-08T05:42:22.903Z,5.78
2023-09-08T05:44:52.168Z,5.60
2023-09-08T05:47:20.564Z,5.35
2023-09-08T05:49:48.959Z,5.68
2023-09-08T05:52:17.207Z,5.95
2023-09-08T05:54:46.725Z,6.45
2023-09-08T05:57:14.960Z,5.60
2023-09-08T05:59:43.296Z,6.38
2023-09-08T06:02:11.631Z,5.78
2023-09-08T06:07:09.823Z,6.18
2023-09-08T06:09:38.291Z,5.18
2023-09-08T06:12:07.119Z,6.03
2023-09-08T06:14:35.446Z,6.07
2023-09-08T06:17:03.668Z,6.47
2023-09-08T06:19:32.166Z,5.95
2023-09-08T06:22:00.396Z,5.82
2023-09-08T06:26:57.857Z,5.82
2023-09-08T06:29:26.963Z,6.85
2023-09-08T06:31:55.211Z,6.15
2023-09-08T06:34:24.477Z,5.47
2023-09-08T06:36:53.034Z,6.28
2023-09-08T06:39:21.301Z,6.32
2023-09-08T06:41:49.610Z,5.97
2023-09-08T06:44:19.283Z,5.90
2023-09-08T06:46:48.185Z,6.43
2023-09-08T06:49:16.754Z,6.10
2023-09-08T06:51:44.987Z,6.90
2023-09-08T06:54:13.285Z,6.18
2023-09-08T06:56:44.527Z,6.15
2023-09-08T06:59:13.355Z,6.68
2023-09-08T07:01:41.711Z,5.72
2023-09-08T07:04:12.343Z,5.82
2023-09-08T07:06:43.117Z,5.55
2023-09-08T07:09:12.295Z,5.75
2023-09-08T07:11:40.698Z,6.05
2023-09-08T07:14:09.525Z,6.85
2023-09-08T07:16:38.725Z,5.82
2023-09-08T07:19:07.828Z,6.57
2023-09-08T07:24:04.073Z,5.25
2023-09-08T07:26:32.315Z,5.82
2023-09-08T07:29:00.599Z,5.35
2023-09-08T07:31:28.868Z,5.47
2023-09-08T07:33:57.173Z,6.03
2023-09-08T07:36:25.440Z,5.22
2023-09-08T07:38:55.834Z,5.57
2023-09-08T07:41:24.887Z,5.20
2023-09-08T07:43:53.160Z,5.55
2023-09-08T07:46:25.405Z,6.03
2023-09-08T07:48:54.054Z,5.40
2023-09-08T07:51:22.267Z,5.30
2023-09-08T07:53:50.611Z,4.90
2023-09-08T07:56:18.972Z,5.15
2023-09-08T07:58:47.300Z,5.40
2023-09-08T08:01:16.584Z,5.60
2023-09-08T08:03:44.952Z,5.05
2023-09-08T08:06:13.256Z,5.90
2023-09-08T08:08:41.741Z,5.10
2023-09-08T08:16:09.821Z,4.82
2023-09-08T08:18:38.410Z,5.32
2023-09-08T08:21:07.084Z,5.47
2023-09-08T08:23:35.571Z,5.50
2023-09-08T08:26:04.395Z,5.45
2023-09-08T08:28:32.797Z,5.68
2023-09-08T08:31:01.407Z,5.45
2023-09-08T08:33:30.577Z,5.07
2023-09-08T08:36:19.979Z,5.45
2023-09-08T08:38:48.302Z,5.88
2023-09-08T08:41:16.847Z,4.80
2023-09-08T08:43:46.208Z,5.25
2023-09-08T08:46:16.036Z,5.75
2023-09-08T08:48:46.042Z,5.50
2023-09-08T08:51:15.296Z,4.70
2023-09-08T08:53:44.357Z,4.75
2023-09-08T08:56:12.623Z,4.70
2023-09-08T09:01:12.984Z,4.60
2023-09-08T09:03:44.129Z,4.88
2023-09-08T09:06:16.103Z,5.00
2023-09-08T09:08:48.299Z,5.00
2023-09-08T09:11:17.492Z,4.32
2023-09-08T09:13:45.785Z,4.78
2023-09-08T09:16:16.421Z,4.57
2023-09-08T09:19:01.759Z,4.65
2023-09-08T09:21:44.877Z,4.55
2023-09-08T09:24:21.311Z,4.80
2023-09-08T09:26:54.584Z,4.50
2023-09-08T09:29:22.845Z,4.60
2023-09-08T09:32:07.200Z,4.70
2023-09-08T09:34:36.829Z,4.30
2023-09-08T09:37:06.842Z,4.15
2023-09-08T09:39:35.030Z,4.60
2023-09-08T09:42:05.573Z,4.18
2023-09-08T09:44:33.762Z,3.95
2023-09-08T09:47:03.059Z,4.13
2023-09-08T09:49:33.403Z,4.15
2023-09-08T09:52:01.797Z,3.80
2023-09-08T09:54:31.349Z,4.50
2023-09-08T09:56:59.696Z,4.25
2023-09-08T09:59:28.800Z,4.45
2023-09-08T10:01:57.298Z,4.15
2023-09-08T10:04:26.263Z,4.60
2023-09-08T10:06:55.271Z,3.85
2023-09-08T10:09:24.162Z,4.53
2023-09-08T10:11:52.618Z,4.10
2023-09-08T10:14:20.980Z,4.22
2023-09-08T10:16:53.886Z,4.28
2023-09-08T10:19:23.913Z,4.07
2023-09-08T10:21:56.494Z,4.50
2023-09-08T10:24:30.068Z,4.10
2023-09-08T10:27:06.715Z,4.07
2023-09-08T10:29:35.051Z,4.45
2023-09-08T10:32:04.757Z,4.20
2023-09-08T10:34:35.611Z,3.95
2023-09-08T10:37:06.982Z,3.70
2023-09-08T10:39:40.833Z,4.70
2023-09-08T10:42:20.934Z,3.78
2023-09-08T10:44:49.161Z,3.92
2023-09-08T10:47:32.090Z,4.15
2023-09-08T10:50:01.583Z,4.68
2023-09-08T10:52:29.992Z,3.80
2023-09-08T10:54:58.359Z,4.35
2023-09-08T10:57:31.548Z,4.35
2023-09-08T11:00:21.400Z,3.92
2023-09-08T11:02:52.851Z,3.85
2023-09-08T11:05:22.579Z,4.10
2023-09-08T11:07:50.973Z,3.55
2023-09-08T11:10:19.271Z,3.40
2023-09-08T11:12:47.587Z,3.70
2023-09-08T11:15:15.790Z,4.28
2023-09-08T11:17:44.172Z,4.22
2023-09-08T11:20:13.875Z,4.10
2023-09-08T11:22:42.476Z,4.28
2023-09-08T11:25:13.014Z,3.47
2023-09-08T11:27:41.679Z,4.38
2023-09-08T11:30:10.829Z,3.78
2023-09-08T11:32:39.213Z,4.55
2023-09-08T11:35:10.619Z,4.70
2023-09-08T11:37:40.178Z,3.92
2023-09-08T11:40:13.943Z,3.92
2023-09-08T11:42:47.029Z,3.97
2023-09-08T11:45:19.431Z,4.03
2023-09-08T11:47:47.698Z,4.20
2023-09-08T11:50:19.482Z,3.63
2023-09-08T11:52:52.795Z,3.58
2023-09-08T11:55:24.369Z,3.58
2023-09-08T11:58:17.603Z,3.75
2023-09-08T12:00:49.130Z,3.53
2023-09-08T12:03:18.119Z,3.05
2023-09-08T12:05:52.436Z,3.53
2023-09-08T12:08:20.753Z,3.95
2023-09-08T12:10:49.047Z,3.80
2023-09-08T12:13:24.160Z,3.20
2023-09-08T12:15:52.572Z,3.25
2023-09-08T12:18:20.859Z,3.47
2023-09-08T12:21:04.674Z,3.25
2023-09-08T12:23:32.860Z,3.33
2023-09-08T12:26:01.356Z,3.45
2023-09-08T12:28:33.199Z,3.10
2023-09-08T12:31:01.476Z,4.25
2023-09-08T12:33:29.698Z,3.20
2023-09-08T12:35:57.968Z,3.60
2023-09-08T12:38:34.652Z,21.20
2023-09-08T12:41:03.177Z,3.58
2023-09-08T12:43:31.538Z,3.40
2023-09-08T12:45:59.881Z,3.45
2023-09-08T12:48:28.153Z,3.58
2023-09-08T12:50:56.434Z,3.22
2023-09-08T12:53:24.804Z,3.42
2023-09-08T12:55:53.067Z,3.10
2023-09-08T12:58:21.899Z,3.60
2023-09-08T13:00:50.159Z,3.80
2023-09-08T13:03:18.399Z,4.10
2023-09-08T13:05:46.733Z,3.38
2023-09-08T13:08:16.672Z,3.03
2023-09-08T13:10:44.971Z,3.10
2023-09-08T13:13:13.302Z,3.60
2023-09-08T13:15:41.565Z,3.13
2023-09-08T13:18:09.973Z,3.40
2023-09-08T13:20:38.225Z,3.08
2023-09-08T13:23:06.493Z,3.00
2023-09-08T13:25:34.716Z,3.13
2023-09-08T13:28:03.086Z,3.13
2023-09-08T13:30:31.342Z,3.08
2023-09-08T13:32:59.731Z,3.53
2023-09-08T13:35:27.955Z,3.55
2023-09-08T13:37:56.132Z,3.22
2023-09-08T13:40:24.437Z,3.50
2023-09-08T13:42:52.847Z,3.53
2023-09-08T13:45:21.130Z,3.08
2023-09-08T13:47:50.535Z,3.58
2023-09-08T13:50:20.841Z,2.90
2023-09-08T13:52:51.451Z,3.38
2023-09-08T13:55:37.098Z,3.40
2023-09-08T13:58:09.174Z,3.45
2023-09-08T14:00:45.011Z,3.60
2023-09-08T14:03:15.231Z,3.30
2023-09-08T14:05:46.229Z,3.35
2023-09-08T14:08:20.167Z,2.88
2023-09-08T14:13:27.562Z,2.90
2023-09-08T14:15:56.426Z,3.25
2023-09-08T14:18:24.764Z,3.30
2023-09-08T14:20:52.977Z,3.75
2023-09-08T14:23:21.242Z,3.00
2023-09-08T14:25:49.474Z,3.05
2023-09-08T14:28:17.649Z,2.95
2023-09-08T14:30:45.919Z,3.08
2023-09-08T14:33:14.176Z,3.13
2023-09-08T14:35:47.172Z,2.88
2023-09-08T14:38:17.877Z,3.40
2023-09-08T14:40:47.165Z,3.03
2023-09-08T14:43:15.345Z,3.03
2023-09-08T14:45:46.752Z,3.15
2023-09-08T14:48:15.536Z,3.10
2023-09-08T14:50:43.904Z,3.13
2023-09-08T14:53:12.203Z,3.03
2023-09-08T14:55:45.262Z,2.97
2023-09-08T14:58:13.631Z,3.05
2023-09-08T15:00:42.384Z,3.22
2023-09-08T15:03:10.695Z,3.30
2023-09-08T15:05:38.940Z,3.28
2023-09-08T15:08:07.281Z,3.50
2023-09-08T15:10:35.490Z,3.22
2023-09-08T15:13:04.634Z,2.83
2023-09-08T15:15:32.900Z,3.40
2023-09-08T15:18:01.238Z,3.33
2023-09-08T15:20:29.562Z,3.28
2023-09-08T15:22:57.958Z,2.97
2023-09-08T15:25:26.211Z,3.40
2023-09-08T15:27:54.449Z,3.28
2023-09-08T15:30:22.836Z,3.75
2023-09-08T15:32:51.192Z,3.25
2023-09-08T15:35:19.498Z,3.35
2023-09-08T15:37:47.788Z,3.30
2023-09-08T15:40:16.117Z,3.40
2023-09-08T15:42:44.736Z,3.78
2023-09-08T15:45:13.404Z,3.75
2023-09-08T15:47:41.679Z,3.40
2023-09-08T15:50:11.627Z,3.70
2023-09-08T15:52:39.866Z,3.35
2023-09-08T15:55:08.371Z,3.50
2023-09-08T15:57:36.551Z,3.53
2023-09-08T16:00:04.999Z,3.30
2023-09-08T16:02:37.071Z,3.58
2023-09-08T16:05:05.991Z,3.28
2023-09-08T16:07:34.263Z,3.80
2023-09-08T16:10:02.507Z,3.70
2023-09-08T16:12:32.837Z,4.15
2023-09-08T16:15:03.250Z,3.40
2023-09-08T16:17:31.592Z,3.83
2023-09-08T16:20:00.536Z,3.53
2023-09-08T16:22:28.720Z,3.83
2023-09-08T16:24:57.203Z,3.50
2023-09-08T16:27:27.667Z,3.88
2023-09-08T16:29:55.845Z,3.63
2023-09-08T16:32:24.148Z,3.88
2023-09-08T16:34:53.064Z,3.70
2023-09-08T16:37:21.290Z,3.53
2023-09-08T16:39:49.521Z,3.72
2023-09-08T16:42:17.785Z,3.22
2023-09-08T16:44:46.117Z,3.42
2023-09-08T16:47:14.319Z,4.25
2023-09-08T16:49:42.897Z,3.97
2023-09-08T16:52:11.174Z,3.58
2023-09-08T16:54:39.402Z,3.67
2023-09-08T16:57:07.752Z,3.90
2023-09-08T16:59:36.048Z,3.63
2023-09-08T17:02:04.450Z,4.20
2023-09-08T17:04:32.785Z,3.80
2023-09-08T17:07:01.121Z,3.53
2023-09-08T17:11:57.917Z,3.63
2023-09-08T17:16:54.218Z,3.88
2023-09-08T17:19:22.492Z,3.80
2023-09-08T17:21:51.831Z,3.80
2023-09-08T17:24:20.262Z,3.72
2023-09-08T17:26:48.456Z,3.60
2023-09-08T17:31:44.548Z,4.00
2023-09-08T17:34:21.143Z,3.55
2023-09-08T17:36:53.982Z,4.20
2023-09-08T17:39:22.231Z,3.97
2023-09-08T17:44:18.469Z,4.07
2023-09-08T17:49:17.297Z,4.03
2023-09-08T17:51:45.543Z,4.35
2023-09-08T17:56:41.745Z,3.42
2023-09-08T18:01:39.108Z,4.03
2023-09-08T18:04:07.936Z,3.92
2023-09-08T18:06:36.273Z,4.03
2023-09-08T18:09:04.782Z,4.22
2023-09-08T18:11:34.126Z,4.07
2023-09-08T18:14:02.380Z,4.43
2023-09-08T18:18:58.450Z,3.95
2023-09-08T18:21:26.642Z,4.00
2023-09-08T18:23:54.866Z,4.03
2023-09-08T18:26:23.241Z,4.45
2023-09-08T18:28:51.475Z,4.40
2023-09-08T18:31:19.740Z,4.30
2023-09-08T18:36:15.830Z,4.20
2023-09-08T18:38:44.018Z,4.47
2023-09-08T18:41:12.306Z,4.07
2023-09-08T18:46:08.414Z,4.18
2023-09-08T18:51:05.756Z,4.07
2023-09-08T18:53:35.900Z,4.15
2023-09-08T18:56:05.233Z,4.82
2023-09-08T18:58:40.176Z,4.70
2023-09-08T19:01:08.744Z,4.85
2023-09-08T19:03:43.854Z,4.68
2023-09-08T19:06:12.159Z,5.22
2023-09-08T19:08:40.623Z,4.47
2023-09-08T19:11:08.894Z,4.78
2023-09-08T19:13:37.454Z,4.22
2023-09-08T19:16:05.944Z,4.20
2023-09-08T19:18:34.253Z,4.55
2023-09-08T19:21:02.445Z,4.70
2023-09-08T19:23:31.216Z,4.60
2023-09-08T19:25:59.435Z,4.88
2023-09-08T19:28:27.622Z,5.30
2023-09-08T19:30:56.059Z,4.63
2023-09-08T19:33:24.493Z,5.40
2023-09-08T19:38:20.862Z,4.38
2023-09-08T19:40:49.181Z,4.18
2023-09-08T19:43:17.415Z,4.95
2023-09-08T19:45:45.655Z,4.63
2023-09-08T19:48:14.054Z,5.03
2023-09-08T19:50:45.699Z,4.60
2023-09-08T19:53:13.927Z,4.88
2023-09-08T19:55:42.220Z,4.97
2023-09-08T19:58:10.510Z,4.40
2023-09-08T20:03:08.126Z,4.90
2023-09-08T20:05:36.493Z,4.43
2023-09-08T20:08:04.766Z,4.85
2023-09-08T20:10:33.277Z,4.93
2023-09-08T20:13:03.060Z,4.70
2023-09-08T20:15:31.318Z,5.03
2023-09-08T20:18:00.446Z,5.10
2023-09-08T20:20:28.810Z,5.32
2023-09-08T20:22:57.015Z,5.65
2023-09-08T20:25:25.326Z,5.10
2023-09-08T20:27:53.496Z,5.30
2023-09-08T20:30:22.037Z,5.10
2023-09-08T20:32:50.310Z,6.15
2023-09-08T20:35:18.779Z,5.22
2023-09-08T20:40:14.962Z,5.18
2023-09-08T20:42:43.136Z,5.25
2023-09-08T20:45:11.569Z,5.00
2023-09-08T20:50:08.132Z,5.50
2023-09-08T20:52:38.309Z,5.82
2023-09-08T20:55:07.104Z,5.80
2023-09-08T20:57:35.411Z,6.13
2023-09-08T21:00:05.158Z,5.38
2023-09-08T21:02:33.551Z,6.18
2023-09-08T21:05:01.791Z,5.75
2023-09-08T21:07:30.043Z,6.13
2023-09-08T21:09:58.229Z,6.47
2023-09-08T21:12:26.794Z,6.22
2023-09-08T21:14:57.445Z,6.38
2023-09-08T21:17:25.685Z,5.85
2023-09-08T21:19:53.948Z,5.72
2023-09-08T21:22:22.242Z,6.47
2023-09-08T21:24:50.422Z,5.80
2023-09-08T21:27:18.677Z,6.03
2023-09-08T21:29:47.445Z,6.20
2023-09-08T21:32:15.793Z,6.63
2023-09-08T21:34:43.999Z,6.07
2023-09-08T21:37:12.222Z,5.95
2023-09-08T21:39:40.455Z,6.22
2023-09-08T21:42:08.801Z,6.50
2023-09-08T21:44:37.009Z,5.93
2023-09-08T21:47:05.565Z,5.80
2023-09-08T21:49:33.837Z,5.72
2023-09-08T21:52:02.162Z,6.00
2023-09-08T21:54:30.378Z,6.05
2023-09-08T21:56:58.599Z,6.05
2023-09-08T21:59:26.860Z,5.70
2023-09-08T22:01:55.985Z,6.13
2023-09-08T22:04:24.618Z,6.28
2023-09-08T22:06:54.053Z,5.80
2023-09-08T22:09:23.156Z,6.55
2023-09-08T22:11:51.661Z,5.85
2023-09-08T22:16:47.973Z,6.00
2023-09-08T22:19:16.410Z,6.20
2023-09-08T22:21:45.715Z,6.53
2023-09-08T22:24:14.066Z,6.75
2023-09-08T22:26:42.270Z,5.78
2023-09-08T22:29:10.564Z,6.70
2023-09-08T22:31:38.850Z,6.13
2023-09-08T22:34:07.131Z,6.40
2023-09-08T22:36:35.386Z,6.32
2023-09-08T22:39:05.811Z,6.40
2023-09-08T22:41:34.019Z,7.05
2023-09-08T22:44:02.226Z,7.22
2023-09-08T22:46:30.702Z,7.00
2023-09-08T22:48:58.908Z,7.22
2023-09-08T22:51:27.169Z,7.18
2023-09-08T22:53:55.446Z,6.53
2023-09-08T22:56:23.760Z,7.13
2023-09-08T22:58:52.119Z,7.07
2023-09-08T23:01:20.413Z,7.18
2023-09-08T23:03:48.790Z,7.55
2023-09-08T23:06:17.138Z,6.88
2023-09-08T23:08:45.317Z,7.00
2023-09-08T23:11:13.584Z,6.63
2023-09-08T23:13:41.965Z,7.47
2023-09-08T23:16:14.233Z,7.70
2023-09-08T23:18:42.648Z,6.47
2023-09-08T23:21:11.009Z,6.75
2023-09-08T23:23:39.478Z,6.63
2023-09-08T23:26:07.867Z,7.25
2023-09-08T23:28:37.716Z,6.45
2023-09-08T23:31:05.979Z,6.65
2023-09-08T23:33:34.289Z,6.75
2023-09-08T23:36:02.537Z,7.05
2023-09-08T23:38:30.793Z,6.90
2023-09-08T23:40:58.986Z,6.13
2023-09-08T23:43:27.747Z,7.20
2023-09-08T23:45:56.066Z,6.43
2023-09-08T23:48:24.243Z,6.07
2023-09-08T23:51:00.133Z,6.75
2023-09-08T23:53:29.672Z,5.97
2023-09-08T23:55:58.087Z,6.15
2023-09-08T23:58:26.338Z,6.55
